Time;durP1;ratioP1;P1;durP2;ratioP2;P2;SDS_P1;SDS_P2;PMS_P1;PMS_P2;Temp;Humidity;BMP_temperature;BMP_pressure;BME280_temperature;BME280_humidity;BME280_pressure;Samples;Min_cycle;Max_cycle;Signal;HPM_P1;HPM_P2
2021/06/02 00:02:17;;;;;;;;;;;;;;;16.62;54.91;96630.56;5047531;28;19933;-67
2021/06/02 00:04:47;;;;;;;;;;;;;;;16.63;54.89;96632.19;5026909;28;19990;-67
2021/06/02 00:07:15;;;;;;;;;;;;;;;16.63;54.84;96634.81;5046465;28;20000;-67
2021/06/02 00:09:42;;;;;;;;;;;;;;;16.63;54.74;96638.22;5043794;28;20349;-67
2021/06/02 00:12:09;;;;;;;;;;;;;;;16.60;54.94;96627.34;5048014;28;19925;-67
2021/06/02 00:14:36;;;;;;;;;;;;;;;16.62;54.91;96625.31;5045106;28;19925;-67
2021/06/02 00:17:03;;;;;;;;;;;;;;;16.61;54.86;96621.06;5024880;28;20464;-67
2021/06/02 00:19:30;;;;;;;;;;;;;;;16.61;55.01;96627.13;5047046;28;19925;-67
2021/06/02 00:21:57;;;;;;;;;;;;;;;16.63;54.77;96622.47;5051240;28;19925;-67
2021/06/02 00:24:24;;;;;;;;;;;;;;;16.62;54.92;96620.88;5048415;28;20482;-67
2021/06/02 00:26:52;;;;;;;;;;;;;;;16.62;54.75;96620.88;5045621;28;20388;-67
2021/06/02 00:29:19;;;;;;;;;;;;;;;16.60;55.06;96622.09;5048473;28;20298;-67
2021/06/02 00:31:47;;;;;;;;;;;;;;;16.60;54.76;96616.84;5050164;28;19933;-67
2021/06/02 00:34:14;;;;;;;;;;;;;;;16.60;54.92;96622.09;5047658;28;19979;-67
2021/06/02 00:36:41;;;;;;;;;;;;;;;16.61;54.72;96613.97;5049499;28;19925;-67
2021/06/02 00:39:08;;;;;;;;;;;;;;;16.62;54.79;96617.44;5047947;28;20770;-67
2021/06/02 00:41:36;;;;;;;;;;;;;;;16.63;54.94;96616.41;5049662;28;19928;-67
2021/06/02 00:44:06;;;;;;;;;;;;;;;16.61;54.75;96613.19;5049300;28;19932;-67
2021/06/02 00:46:36;;;;;;;;;;;;;;;16.65;54.83;96622.25;5045430;28;19925;-67
2021/06/02 00:49:04;;;;;;;;;;;;;;;16.63;54.79;96621.66;5049599;28;20365;-67
2021/06/02 00:51:31;;;;;;;;;;;;;;;16.60;55.03;96616.84;5047708;28;20378;-67
2021/06/02 00:53:58;;;;;;;;;;;;;;;16.62;54.84;96614.81;5047645;28;19925;-67
2021/06/02 00:56:36;;;;;;;;;;;;;;;16.59;54.82;96616.00;5049510;28;19929;-67
2021/06/02 00:59:03;;;;;;;;;;;;;;;16.61;54.78;96615.81;5050232;28;19925;-67
2021/06/02 01:01:33;;;;;;;;;;;;;;;16.61;54.90;96610.56;5049736;28;19924;-67
2021/06/02 01:04:04;;;;;;;;;;;;;;;16.60;54.69;96612.38;5048931;28;19953;-67
2021/06/02 01:06:34;;;;;;;;;;;;;;;16.60;54.92;96607.13;5048637;28;19933;-67
2021/06/02 01:09:02;;;;;;;;;;;;;;;16.61;54.72;96615.81;5049123;28;19925;-67
2021/06/02 01:11:29;;;;;;;;;;;;;;;16.59;54.89;96609.94;5050004;28;20432;-67
2021/06/02 01:13:57;;;;;;;;;;;;;;;16.62;54.59;96612.19;5047278;28;19964;-67
2021/06/02 01:16:28;;;;;;;;;;;;;;;16.63;54.67;96611.16;5046771;28;19943;-67
2021/06/02 01:18:55;;;;;;;;;;;;;;;16.61;54.87;96610.56;5050544;28;19935;-67
2021/06/02 01:21:23;;;;;;;;;;;;;;;16.60;54.76;96616.84;5048307;28;20285;-67
2021/06/02 01:23:58;;;;;;;;;;;;;;;16.59;54.88;96610.75;5033164;28;19929;-67
2021/06/02 01:26:26;;;;;;;;;;;;;;;16.60;55.00;96622.09;5031320;28;19933;-67
2021/06/02 01:28:53;;;;;;;;;;;;;;;16.59;54.76;96617.84;5046773;28;20258;-67
2021/06/02 01:31:46;;;;;;;;;;;;;;;16.60;54.81;96624.72;5049361;28;19925;-67
2021/06/02 01:34:23;;;;;;;;;;;;;;;16.60;55.14;96624.72;5027990;28;19929;-67
2021/06/02 01:37:07;;;;;;;;;;;;;;;16.60;54.85;96616.84;5049412;28;19929;-67
2021/06/02 01:39:40;;;;;;;;;;;;;;;16.60;54.79;96611.59;5030387;28;20288;-67
2021/06/02 01:42:25;;;;;;;;;;;;;;;16.58;55.08;96616.25;5048890;28;19965;-67
2021/06/02 01:44:54;;;;;;;;;;;;;;;16.58;55.13;96613.59;5045665;28;19960;-67
2021/06/02 01:47:23;;;;;;;;;;;;;;;16.57;54.99;96619.88;5048600;28;19925;-67
2021/06/02 01:50:00;;;;;;;;;;;;;;;16.59;55.10;96609.94;5047941;28;19929;-67
2021/06/02 01:52:33;;;;;;;;;;;;;;;16.58;54.83;96608.34;5048131;28;19939;-67
2021/06/02 01:55:14;;;;;;;;;;;;;;;16.59;54.87;96604.69;5048926;28;20399;-67
2021/06/02 01:58:13;;;;;;;;;;;;;;;16.59;54.64;96608.13;5049655;28;20316;-67
2021/06/02 02:00:44;;;;;;;;;;;;;;;16.58;54.61;96606.53;4984084;28;20512;-67
2021/06/02 02:03:29;;;;;;;;;;;;;;;16.58;54.88;96603.09;5047476;28;19986;-67
2021/06/02 02:05:59;;;;;;;;;;;;;;;16.58;54.73;96600.47;5046282;28;19935;-67
2021/06/02 02:08:28;;;;;;;;;;;;;;;16.58;55.10;96608.34;5048347;28;19929;-67
2021/06/02 02:11:02;;;;;;;;;;;;;;;16.59;54.82;96599.44;5029632;28;19935;-67
2021/06/02 02:13:31;;;;;;;;;;;;;;;16.60;54.79;96599.25;5049238;28;20573;-67
2021/06/02 02:15:57;;;;;;;;;;;;;;;16.60;54.95;96601.06;5042073;28;19947;-67
2021/06/02 02:18:45;;;;;;;;;;;;;;;16.58;54.57;96603.91;5047853;28;19933;-67
2021/06/02 02:21:23;;;;;;;;;;;;;;;16.59;54.59;96605.50;5044360;28;20365;-67
2021/06/02 02:23:58;;;;;;;;;;;;;;;16.58;54.89;96603.09;5031630;28;19929;-67
2021/06/02 02:26:44;;;;;;;;;;;;;;;16.57;54.79;96598.84;5047648;28;19929;-67
2021/06/02 02:29:26;;;;;;;;;;;;;;;16.59;54.80;96594.19;5029405;28;20292;-67
2021/06/02 02:31:55;;;;;;;;;;;;;;;16.60;54.77;96601.06;5043687;28;20495;-67
2021/06/02 02:34:25;;;;;;;;;;;;;;;16.60;54.61;96594.00;5048680;28;19929;-67
2021/06/02 02:37:26;;;;;;;;;;;;;;;16.60;54.53;96596.63;5048852;28;19995;-67
2021/06/02 02:40:01;;;;;;;;;;;;;;;16.59;54.80;96599.44;4927476;29;19955;-67
2021/06/02 02:42:32;;;;;;;;;;;;;;;16.57;54.73;96597.00;5029323;28;19936;-67
2021/06/02 02:45:04;;;;;;;;;;;;;;;16.59;54.57;96602.06;5046336;28;20427;-67
2021/06/02 02:47:48;;;;;;;;;;;;;;;16.59;54.56;96602.88;5047173;28;19932;-67
2021/06/02 02:50:33;;;;;;;;;;;;;;;16.57;54.79;96601.47;5048036;28;19929;-67
2021/06/02 02:53:02;;;;;;;;;;;;;;;16.59;54.73;96604.69;5048193;28;19925;-67
2021/06/02 02:55:30;;;;;;;;;;;;;;;16.59;54.66;96615.22;5046174;28;20357;-67
2021/06/02 02:57:59;;;;;;;;;;;;;;;16.61;54.59;96607.94;5046777;28;20395;-67
2021/06/02 03:00:55;;;;;;;;;;;;;;;16.60;54.49;96619.47;5048596;28;19931;-67
2021/06/02 03:03:33;;;;;;;;;;;;;;;16.58;54.63;96617.03;4962382;28;19930;-67
2021/06/02 03:06:02;;;;;;;;;;;;;;;16.59;54.48;96617.84;5047476;28;19931;-67
2021/06/02 03:08:35;;;;;;;;;;;;;;;16.59;54.56;96620.47;5046979;28;19952;-67
2021/06/02 03:11:10;;;;;;;;;;;;;;;16.58;54.73;96616.25;5044233;28;20408;-67
2021/06/02 03:13:42;;;;;;;;;;;;;;;16.58;54.44;96624.13;5046390;28;20549;-67
2021/06/02 03:16:11;;;;;;;;;;;;;;;16.58;54.35;96632.00;5048015;28;19932;-67
2021/06/02 03:18:46;;;;;;;;;;;;;;;16.58;54.62;96627.53;5046559;28;19929;-67
2021/06/02 03:21:30;;;;;;;;;;;;;;;16.57;54.60;96633.81;5043765;28;19935;-67
2021/06/02 03:24:15;;;;;;;;;;;;;;;16.57;54.53;96625.91;5045291;28;20292;-67
2021/06/02 03:26:46;;;;;;;;;;;;;;;16.58;54.49;96627.53;5044476;28;20058;-67
2021/06/02 03:29:20;;;;;;;;;;;;;;;16.59;54.63;96625.72;5047892;28;19979;-67
2021/06/02 03:32:03;;;;;;;;;;;;;;;16.58;54.51;96622.28;5046576;28;19947;-67
2021/06/02 03:34:42;;;;;;;;;;;;;;;16.59;55.00;96625.72;5042748;28;19933;-67
2021/06/02 03:37:11;;;;;;;;;;;;;;;16.59;54.76;96629.16;5046387;28;19925;-67
2021/06/02 03:39:48;;;;;;;;;;;;;;;16.60;54.63;96627.34;5047683;28;19931;-67
2021/06/02 03:42:48;;;;;;;;;;;;;;;16.59;54.67;96629.16;5046816;28;20020;-67
2021/06/02 03:45:18;;;;;;;;;;;;;;;16.57;54.65;96630.38;4992276;28;20020;-67
2021/06/02 03:47:51;;;;;;;;;;;;;;;16.57;54.97;96638.25;5046195;28;19924;-67
2021/06/02 03:50:19;;;;;;;;;;;;;;;16.59;54.65;96639.66;5046961;28;20420;-67
2021/06/02 03:52:48;;;;;;;;;;;;;;;16.59;54.69;96633.59;5012948;28;20265;-67
2021/06/02 03:55:34;;;;;;;;;;;;;;;16.58;54.64;96639.88;5050346;28;19925;-67
2021/06/02 03:58:19;;;;;;;;;;;;;;;16.59;54.34;96641.50;5049553;28;19948;-67
2021/06/02 04:01:02;;;;;;;;;;;;;;;16.59;54.57;96649.38;5048258;28;19931;-67
2021/06/02 04:03:32;;;;;;;;;;;;;;;16.58;54.67;96651.19;5049938;28;19955;-67
2021/06/02 04:06:10;;;;;;;;;;;;;;;16.57;54.81;96646.94;5049421;28;19924;-67
2021/06/02 04:08:43;;;;;;;;;;;;;;;16.59;54.73;96654.63;5048930;28;19925;-67
2021/06/02 04:11:09;;;;;;;;;;;;;;;16.59;54.53;96647.53;5049272;28;19925;-67
2021/06/02 04:13:42;;;;;;;;;;;;;;;16.59;54.79;96662.50;5049596;28;19924;-67
2021/06/02 04:16:21;;;;;;;;;;;;;;;16.58;54.67;96653.03;5048890;28;19935;-67
2021/06/02 04:18:48;;;;;;;;;;;;;;;16.56;54.65;96662.94;5050698;28;19932;-67
2021/06/02 04:21:16;;;;;;;;;;;;;;;16.58;54.63;96666.16;5049518;28;20292;-67
2021/06/02 04:23:44;;;;;;;;;;;;;;;16.57;54.98;96664.53;5047669;28;19929;-67
2021/06/02 04:26:10;;;;;;;;;;;;;;;16.58;54.60;96655.66;5031073;28;19931;-66
2021/06/02 04:28:38;;;;;;;;;;;;;;;16.57;54.68;96661.91;5050177;28;19925;-67
2021/06/02 04:31:09;;;;;;;;;;;;;;;16.57;54.82;96659.28;5050234;28;19928;-67
2021/06/02 04:33:37;;;;;;;;;;;;;;;16.58;54.92;96671.41;5029102;28;19925;-67
2021/06/02 04:36:05;;;;;;;;;;;;;;;16.51;55.02;96667.97;5051109;28;19925;-67
2021/06/02 04:38:32;;;;;;;;;;;;;;;16.45;55.07;96664.38;5048946;28;19935;-67
2021/06/02 04:41:02;;;;;;;;;;;;;;;16.45;54.81;96662.56;5046515;28;19928;-67
2021/06/02 04:43:39;;;;;;;;;;;;;;;16.45;54.69;96659.94;5047465;28;20409;-67
2021/06/02 04:46:07;;;;;;;;;;;;;;;16.47;54.76;96663.16;5049459;28;19925;-67
2021/06/02 04:48:33;;;;;;;;;;;;;;;16.51;54.63;96662.72;5049211;28;20136;-66
2021/06/02 04:51:38;;;;;;;;;;;;;;;16.56;54.51;96660.31;5049267;28;20324;-67
2021/06/02 04:54:33;;;;;;;;;;;;;;;16.46;55.31;96663.34;4945493;28;19927;-67
2021/06/02 04:56:59;;;;;;;;;;;;;;;16.55;54.35;96661.31;4946340;28;19926;-67
2021/06/02 04:59:44;;;;;;;;;;;;;;;16.45;54.55;96669.63;5011900;28;19924;-67
2021/06/02 05:02:14;;;;;;;;;;;;;;;16.42;54.56;96656.91;5049605;28;20285;-67
2021/06/02 05:04:46;;;;;;;;;;;;;;;16.34;54.66;96665.81;5046512;28;20506;-67
2021/06/02 05:07:25;;;;;;;;;;;;;;;16.36;54.65;96668.22;5050342;28;20384;-67
2021/06/02 05:10:00;;;;;;;;;;;;;;;16.38;54.64;96667.03;5046055;28;19948;-67
2021/06/02 05:12:38;;;;;;;;;;;;;;;16.35;54.82;96672.66;5046471;28;20328;-67
2021/06/02 05:15:31;;;;;;;;;;;;;;;16.39;54.63;96678.34;5028423;28;19925;-67
2021/06/02 05:18:16;;;;;;;;;;;;;;;16.37;54.80;96681.16;5044686;28;19951;-66
2021/06/02 05:23:48;;;;;;;;;;;;;;;16.35;54.91;96682.38;5049231;28;19924;-66
2021/06/02 05:26:24;;;;;;;;;;;;;;;16.41;54.58;96698.13;5047848;28;19929;-66
2021/06/02 05:29:09;;;;;;;;;;;;;;;16.38;54.79;96700.34;5047130;28;20465;-69
2021/06/02 05:31:59;;;;;;;;;;;;;;;16.37;54.74;96696.91;5048684;28;19928;-68
2021/06/02 05:34:26;;;;;;;;;;;;;;;16.35;55.32;96698.94;5018327;28;20609;-68
2021/06/02 05:37:02;;;;;;;;;;;;;;;16.37;54.40;96702.16;5046735;28;19975;-68
2021/06/02 05:39:47;;;;;;;;;;;;;;;16.33;54.71;96700.16;5043551;28;19929;-69
2021/06/02 05:42:22;;;;;;;;;;;;;;;16.35;54.78;96706.03;5049606;28;19931;-70
2021/06/02 05:45:07;;;;;;;;;;;;;;;16.33;54.86;96700.97;5029424;28;19960;-71
2021/06/02 05:47:44;;;;;;;;;;;;;;;16.34;54.55;96705.22;5047030;28;20400;-69
2021/06/02 05:50:20;;;;;;;;;;;;;;;16.37;54.58;96707.44;5051038;28;20505;-69
2021/06/02 05:52:46;;;;;;;;;;;;;;;16.34;54.97;96704.38;5052028;28;19925;-70
2021/06/02 05:55:16;;;;;;;;;;;;;;;16.35;54.70;96708.66;5051793;28;19998;-68
2021/06/02 05:58:08;;;;;;;;;;;;;;;16.34;54.79;96707.84;5049961;28;19925;-68
2021/06/02 06:00:53;;;;;;;;;;;;;;;16.38;54.50;96703.81;5050671;28;20402;-63
2021/06/02 06:03:45;;;;;;;;;;;;;;;16.30;54.81;96709.25;5052615;28;19924;-68
2021/06/02 06:06:20;;;;;;;;;;;;;;;16.29;54.96;96716.31;5049598;28;19956;-67
2021/06/02 06:08:52;;;;;;;;;;;;;;;16.22;54.00;96717.34;5048251;28;19925;-68
2021/06/02 06:11:25;;;;;;;;;;;;;;;16.26;53.56;96719.34;5046016;28;20405;-68
2021/06/02 06:13:57;;;;;;;;;;;;;;;16.31;53.93;96717.94;5042401;28;20016;-68
2021/06/02 06:16:42;;;;;;;;;;;;;;;16.37;53.45;96717.13;5047147;28;19932;-67
2021/06/02 06:19:27;;;;;;;;;;;;;;;16.33;53.97;96716.72;5048150;28;19932;-68
2021/06/02 06:22:12;;;;;;;;;;;;;;;16.34;53.96;96715.72;5044917;28;19925;-68
2021/06/02 06:24:54;;;;;;;;;;;;;;;16.32;54.22;96720.38;5044369;28;19928;-68
2021/06/02 06:27:20;;;;;;;;;;;;;;;16.32;54.10;96712.50;5044231;28;20616;-68
2021/06/02 06:30:19;;;;;;;;;;;;;;;16.32;54.49;96715.13;5047350;28;19936;-68
2021/06/02 06:32:49;;;;;;;;;;;;;;;16.31;54.69;96718.75;5001901;28;19928;-68
2021/06/02 06:35:17;;;;;;;;;;;;;;;16.34;54.22;96730.66;5045496;28;19956;-68
2021/06/02 06:37:45;;;;;;;;;;;;;;;16.31;54.58;96737.13;5044211;28;20392;-68
2021/06/02 06:40:16;;;;;;;;;;;;;;;16.31;54.64;96734.50;5046317;28;19936;-68
2021/06/02 06:42:44;;;;;;;;;;;;;;;16.32;54.56;96730.06;5047012;28;20684;-68
2021/06/02 06:45:15;;;;;;;;;;;;;;;16.36;54.14;96729.47;5046626;28;19932;-68
2021/06/02 06:47:41;;;;;;;;;;;;;;;16.36;54.35;96739.97;5036250;28;19932;-68
2021/06/02 06:50:09;;;;;;;;;;;;;;;16.34;54.44;96728.88;5047722;28;20425;-68
2021/06/02 06:52:37;;;;;;;;;;;;;;;16.38;54.47;96739.75;5044320;28;19944;-68
2021/06/02 06:55:04;;;;;;;;;;;;;;;16.29;54.58;96732.06;5045260;28;19925;-68
2021/06/02 06:57:32;;;;;;;;;;;;;;;16.35;54.53;96733.09;5025330;28;19933;-68
2021/06/02 06:59:59;;;;;;;;;;;;;;;16.37;54.35;96730.28;5026117;28;19936;-68
2021/06/02 07:02:26;;;;;;;;;;;;;;;16.35;54.63;96733.09;5047691;28;19936;-68
2021/06/02 07:04:54;;;;;;;;;;;;;;;16.31;54.65;96739.75;5040872;28;19929;-68
2021/06/02 07:07:20;;;;;;;;;;;;;;;16.35;54.67;96743.59;5045298;28;20607;-68
2021/06/02 07:09:47;;;;;;;;;;;;;;;16.39;54.41;96751.88;5045002;28;19935;-68
2021/06/02 07:12:16;;;;;;;;;;;;;;;16.35;54.67;96746.22;5044755;28;19940;-68
2021/06/02 07:14:43;;;;;;;;;;;;;;;16.35;54.51;96746.22;5044903;28;19968;-68
2021/06/02 07:17:09;;;;;;;;;;;;;;;16.34;54.51;96738.53;5043983;28;19929;-68
2021/06/02 07:19:38;;;;;;;;;;;;;;;16.36;54.33;96747.84;5047148;28;20415;-68
2021/06/02 07:22:05;;;;;;;;;;;;;;;16.38;54.16;96737.97;5043883;28;19925;-68
2021/06/02 07:24:32;;;;;;;;;;;;;;;16.33;54.70;96742.19;5043905;28;19939;-68
2021/06/02 07:26:59;;;;;;;;;;;;;;;16.35;54.45;96750.69;5028715;28;20280;-68
2021/06/02 07:29:26;;;;;;;;;;;;;;;16.36;54.60;96742.59;5045147;28;20055;-69
2021/06/02 07:31:53;;;;;;;;;;;;;;;16.34;54.53;96746.41;5044320;28;20399;-68
2021/06/02 07:34:21;;;;;;;;;;;;;;;16.32;54.71;96740.56;5045337;28;19925;-68
2021/06/02 07:36:48;;;;;;;;;;;;;;;16.34;54.50;96739.38;5045802;28;19929;-68
2021/06/02 07:39:15;;;;;;;;;;;;;;;16.38;54.43;96743.22;5044771;28;19933;-68
2021/06/02 07:41:41;;;;;;;;;;;;;;;16.40;54.54;96740.34;5043724;28;20294;-68
2021/06/02 07:44:08;;;;;;;;;;;;;;;16.35;54.55;96745.44;5045073;28;19933;-68
2021/06/02 07:46:35;;;;;;;;;;;;;;;16.37;54.53;96746.03;5043923;28;20387;-68
2021/06/02 07:49:02;;;;;;;;;;;;;;;16.39;54.21;96749.25;5044558;28;19933;-69
2021/06/02 07:51:29;;;;;;;;;;;;;;;16.39;54.32;96742.19;5041818;28;19929;-69
2021/06/02 07:53:55;;;;;;;;;;;;;;;16.38;54.45;96745.00;5044199;28;19925;-68
2021/06/02 07:56:22;;;;;;;;;;;;;;;16.41;54.31;96742.00;5043806;28;19925;-68
2021/06/02 07:58:48;;;;;;;;;;;;;;;16.39;54.75;96741.38;5027938;28;19929;-68
2021/06/02 08:01:15;;;;;;;;;;;;;;;16.36;54.76;96744.41;5036444;28;19955;-68
2021/06/02 08:03:41;;;;;;;;;;;;;;;16.39;54.41;96742.19;5047591;28;19925;-68
2021/06/02 08:06:08;;;;;;;;;;;;;;;16.43;54.50;96748.66;5045461;28;19924;-67
2021/06/02 08:08:34;;;;;;;;;;;;;;;16.35;55.10;96746.22;5046129;28;19925;-68
2021/06/02 08:11:01;;;;;;;;;;;;;;;16.37;54.88;96748.66;5044336;28;19931;-69
2021/06/02 08:13:27;;;;;;;;;;;;;;;16.35;55.06;96742.78;5046937;28;19932;-68
2021/06/02 08:15:54;;;;;;;;;;;;;;;16.36;54.92;96744.41;5048285;28;19932;-68
2021/06/02 08:18:20;;;;;;;;;;;;;;;16.37;54.75;96746.03;5046038;28;19995;-68
2021/06/02 08:20:47;;;;;;;;;;;;;;;16.38;54.97;96745.00;5045041;28;19924;-68
2021/06/02 08:23:13;;;;;;;;;;;;;;;16.31;55.10;96750.25;5045769;28;19937;-68
2021/06/02 08:25:40;;;;;;;;;;;;;;;16.33;54.99;96748.25;5045277;28;19925;-68
2021/06/02 08:28:06;;;;;;;;;;;;;;;16.36;55.07;96747.03;5047896;28;19928;-68
2021/06/02 08:30:33;;;;;;;;;;;;;;;16.38;54.83;96745.00;5045139;28;20289;-68
2021/06/02 08:32:59;;;;;;;;;;;;;;;16.36;54.88;96747.03;5047768;28;19925;-68
2021/06/02 08:35:26;;;;;;;;;;;;;;;16.34;54.99;96749.88;5044568;28;20407;-69
2021/06/02 08:37:53;;;;;;;;;;;;;;;16.35;54.92;96754.09;5045128;28;19928;-68
2021/06/02 08:40:20;;;;;;;;;;;;;;;16.34;55.08;96760.38;5045653;28;19929;-68
2021/06/02 08:42:47;;;;;;;;;;;;;;;16.29;54.57;96753.09;5051052;28;20261;-68
2021/06/02 08:45:16;;;;;;;;;;;;;;;16.35;54.36;96754.09;5049906;28;20355;-67
2021/06/02 08:47:43;;;;;;;;;;;;;;;16.37;54.75;96754.72;5049954;28;19925;-67
2021/06/02 08:50:11;;;;;;;;;;;;;;;16.36;54.90;96749.66;5049622;28;19928;-67
2021/06/02 08:52:38;;;;;;;;;;;;;;;16.37;54.80;96749.47;5050788;28;20300;-67
2021/06/02 08:55:06;;;;;;;;;;;;;;;16.36;55.22;96747.03;5050648;28;20595;-67
2021/06/02 08:57:33;;;;;;;;;;;;;;;16.37;54.87;96749.47;5048621;28;20276;-67
2021/06/02 08:59:59;;;;;;;;;;;;;;;16.38;54.90;96747.63;5049379;28;21347;-68
2021/06/02 09:02:26;;;;;;;;;;;;;;;16.39;55.15;96746.63;5055312;28;19929;-68
2021/06/02 09:04:52;;;;;;;;;;;;;;;16.41;54.87;96753.28;5043881;28;19948;-67
2021/06/02 09:07:19;;;;;;;;;;;;;;;16.43;54.98;96739.97;5047320;28;19928;-68
2021/06/02 09:09:50;;;;;;;;;;;;;;;16.42;55.00;96746.22;5050219;28;20205;-67
2021/06/02 09:12:19;;;;;;;;;;;;;;;16.39;54.96;96749.25;5051126;28;19933;-68
2021/06/02 09:14:46;;;;;;;;;;;;;;;16.40;54.97;96746.44;5048377;28;19929;-68
2021/06/02 09:17:15;;;;;;;;;;;;;;;16.41;54.92;96747.25;5048456;28;19939;-67
2021/06/02 09:19:43;;;;;;;;;;;;;;;16.39;54.81;96750.06;5049484;28;19944;-66
2021/06/02 09:22:11;;;;;;;;;;;;;;;16.39;55.06;96744.81;5049443;28;19925;-66
2021/06/02 09:24:56;;;;;;;;;;;;;;;16.42;54.86;96743.59;5048541;28;19925;-67
2021/06/02 09:27:41;;;;;;;;;;;;;;;16.40;55.10;96746.44;5048126;28;20007;-67
2021/06/02 09:30:08;;;;;;;;;;;;;;;16.36;55.05;96753.09;5048345;28;19933;-66
2021/06/02 09:33:01;;;;;;;;;;;;;;;16.38;55.10;96751.09;5049844;28;20316;-68
2021/06/02 09:35:34;;;;;;;;;;;;;;;16.40;55.03;96749.06;5043051;28;19963;-68
2021/06/02 09:38:02;;;;;;;;;;;;;;;16.43;54.90;96759.16;5049860;28;20003;-68
2021/06/02 09:40:30;;;;;;;;;;;;;;;16.43;54.99;96753.09;5048548;28;19929;-68
2021/06/02 09:42:56;;;;;;;;;;;;;;;16.43;54.98;96753.09;5048926;28;20459;-69
2021/06/02 09:45:23;;;;;;;;;;;;;;;16.40;55.14;96754.31;5049874;28;19932;-68
2021/06/02 09:47:57;;;;;;;;;;;;;;;16.44;54.97;96752.06;5050348;28;19929;-70
2021/06/02 09:50:28;;;;;;;;;;;;;;;16.42;55.05;96756.72;5048354;28;19924;-66
2021/06/02 09:52:55;;;;;;;;;;;;;;;16.42;55.21;96756.72;5048150;28;20441;-69
2021/06/02 09:55:31;;;;;;;;;;;;;;;16.45;55.16;96756.34;5049575;28;20380;-69
2021/06/02 09:58:00;;;;;;;;;;;;;;;16.45;54.96;96757.13;5048440;28;19928;-69
2021/06/02 10:00:35;;;;;;;;;;;;;;;16.46;54.99;96742.16;5049085;28;19928;-69
2021/06/02 10:03:12;;;;;;;;;;;;;;;16.41;55.19;96744.63;5047521;28;19924;-69
2021/06/02 10:05:38;;;;;;;;;;;;;;;16.38;55.30;96745.84;5047189;28;19937;-68
2021/06/02 10:08:06;;;;;;;;;;;;;;;16.43;54.94;96753.09;5050708;28;20362;-69
2021/06/02 10:10:32;;;;;;;;;;;;;;;16.39;55.37;96752.69;5046296;28;20557;-67
2021/06/02 10:13:00;;;;;;;;;;;;;;;16.46;54.99;96756.09;5049543;28;19939;-68
2021/06/02 10:15:28;;;;;;;;;;;;;;;16.46;55.22;96757.94;5047632;28;19931;-68
2021/06/02 10:17:55;;;;;;;;;;;;;;;16.45;55.11;96757.13;5049455;28;20392;-68
2021/06/02 10:20:21;;;;;;;;;;;;;;;16.46;55.16;96761.38;5044611;28;19978;-68
2021/06/02 10:22:55;;;;;;;;;;;;;;;16.48;54.92;96756.72;5047238;28;19939;-68
2021/06/02 10:25:23;;;;;;;;;;;;;;;16.49;55.06;96757.53;5029834;28;19933;-68
2021/06/02 10:27:54;;;;;;;;;;;;;;;16.49;55.17;96754.91;5048755;28;20372;-68
2021/06/02 10:30:23;;;;;;;;;;;;;;;16.48;55.10;96766.41;5027133;28;19975;-69
2021/06/02 10:32:50;;;;;;;;;;;;;;;16.47;55.13;96765.63;5045445;28;19975;-69
2021/06/02 10:35:16;;;;;;;;;;;;;;;16.46;55.30;96760.56;5050663;28;20447;-68
2021/06/02 10:37:43;;;;;;;;;;;;;;;16.48;55.08;96755.91;5049498;28;19925;-69
2021/06/02 10:40:12;;;;;;;;;;;;;;;16.51;55.10;96762.56;5047018;28;19940;-69
2021/06/02 10:42:45;;;;;;;;;;;;;;;16.52;55.08;96756.31;5048239;28;19925;-68
2021/06/02 10:45:24;;;;;;;;;;;;;;;16.57;54.83;96753.88;5047568;28;19931;-68
2021/06/02 10:47:54;;;;;;;;;;;;;;;16.57;54.79;96754.69;5049819;28;19932;-69
2021/06/02 10:50:27;;;;;;;;;;;;;;;16.55;55.07;96762.00;5045338;28;19929;-69
2021/06/02 10:52:53;;;;;;;;;;;;;;;16.56;54.79;96763.59;5045551;28;19952;-69
2021/06/02 10:55:32;;;;;;;;;;;;;;;16.57;54.96;96765.19;5049176;28;20595;-68
2021/06/02 10:58:19;;;;;;;;;;;;;;;16.57;54.73;96754.69;5049419;28;19963;-68
2021/06/02 11:00:48;;;;;;;;;;;;;;;16.55;54.88;96756.72;5055462;28;19924;-69
2021/06/02 11:03:22;;;;;;;;;;;;;;;16.56;54.85;96760.16;5043229;28;20418;-69
2021/06/02 11:05:57;;;;;;;;;;;;;;;16.56;54.91;96768.84;5053262;28;19925;-69
2021/06/02 11:08:42;;;;;;;;;;;;;;;16.56;55.16;96763.59;5047822;28;19925;-69
2021/06/02 11:11:24;;;;;;;;;;;;;;;16.57;54.98;96773.06;5048816;28;19929;-69
2021/06/02 11:14:09;;;;;;;;;;;;;;;16.54;55.07;96767.44;5048776;28;19975;-69
2021/06/02 11:16:39;;;;;;;;;;;;;;;16.55;54.96;96761.16;5044638;28;20420;-69
2021/06/02 11:19:16;;;;;;;;;;;;;;;16.57;54.88;96769.66;5046818;28;19940;-69
2021/06/02 11:21:57;;;;;;;;;;;;;;;16.58;55.04;96760.75;5042949;28;20396;-69
2021/06/02 11:24:33;;;;;;;;;;;;;;;16.58;54.89;96763.41;5047804;28;19937;-69
2021/06/02 11:27:30;;;;;;;;;;;;;;;16.59;55.20;96759.75;5045577;28;19932;-69
2021/06/02 11:29:56;;;;;;;;;;;;;;;16.68;54.51;96751.44;5025431;28;19925;-69
2021/06/02 11:32:31;;;;;;;;;;;;;;;16.73;54.24;96757.91;5046353;28;19929;-70
2021/06/02 11:35:05;;;;;;;;;;;;;;;16.75;54.38;96753.25;5046493;28;19936;-70
2021/06/02 11:37:35;;;;;;;;;;;;;;;16.77;54.15;96756.50;5045698;28;19925;-69
2021/06/02 11:40:06;;;;;;;;;;;;;;;16.78;54.02;96750.22;5045691;28;19925;-69
2021/06/02 11:42:34;;;;;;;;;;;;;;;16.79;54.10;96750.00;5030777;28;19932;-70
2021/06/02 11:45:06;;;;;;;;;;;;;;;16.80;53.92;96749.00;5047747;28;19925;-69
2021/06/02 11:47:33;;;;;;;;;;;;;;;16.79;54.14;96752.63;5047877;28;19925;-69
2021/06/02 11:50:04;;;;;;;;;;;;;;;16.81;54.00;96760.34;5047046;28;19971;-69
2021/06/02 11:52:30;;;;;;;;;;;;;;;16.82;53.95;96754.06;5047551;28;19933;-69
2021/06/02 11:55:01;;;;;;;;;;;;;;;16.81;53.97;96755.91;5046019;28;19987;-69
2021/06/02 11:57:32;;;;;;;;;;;;;;;16.82;53.89;96746.97;5049087;28;19936;-69
2021/06/02 12:00:00;;;;;;;;;;;;;;;16.82;53.86;96746.97;5046061;28;19932;-69
2021/06/02 12:02:27;;;;;;;;;;;;;;;16.84;54.01;96744.16;5047571;28;19928;-69
2021/06/02 12:04:53;;;;;;;;;;;;;;;16.84;54.03;96744.97;5024382;28;19929;-69
2021/06/02 12:07:20;;;;;;;;;;;;;;;16.84;53.95;96746.78;5048576;28;19931;-69
2021/06/02 12:09:48;;;;;;;;;;;;;;;16.84;54.08;96752.84;5044198;28;19925;-69
2021/06/02 12:12:14;;;;;;;;;;;;;;;16.84;54.01;96752.84;5047630;28;19929;-69
2021/06/02 12:14:41;;;;;;;;;;;;;;;16.85;54.10;96751.06;5049638;28;20463;-69
2021/06/02 12:17:07;;;;;;;;;;;;;;;16.85;54.12;96756.31;5032389;28;19924;-69
2021/06/02 12:19:34;;;;;;;;;;;;;;;16.85;54.05;96754.47;5048887;28;20389;-69
2021/06/02 12:22:11;;;;;;;;;;;;;;;16.87;53.91;96759.53;5052499;28;20308;-69
2021/06/02 12:24:38;;;;;;;;;;;;;;;16.86;54.02;96753.44;5051756;28;20292;-69
2021/06/02 12:27:04;;;;;;;;;;;;;;;16.87;53.87;96755.09;5048243;28;19925;-69
2021/06/02 12:29:32;;;;;;;;;;;;;;;16.87;54.00;96755.09;5049076;28;19924;-69
2021/06/02 12:32:00;;;;;;;;;;;;;;;16.87;54.10;96749.81;5050650;28;19940;-69
2021/06/02 12:34:32;;;;;;;;;;;;;;;16.87;54.03;96754.28;5052252;28;19931;-69
2021/06/02 12:37:07;;;;;;;;;;;;;;;16.87;53.95;96747.19;5052000;28;19972;-69
2021/06/02 12:39:33;;;;;;;;;;;;;;;16.87;53.86;96739.31;5049665;28;19924;-69
2021/06/02 12:42:01;;;;;;;;;;;;;;;16.88;54.11;96743.53;5048824;28;19925;-69
2021/06/02 12:44:29;;;;;;;;;;;;;;;16.88;54.10;96746.16;5050152;28;20300;-70
2021/06/02 12:46:56;;;;;;;;;;;;;;;16.88;53.99;96748.78;5051705;28;19932;-69
2021/06/02 12:49:22;;;;;;;;;;;;;;;16.90;54.03;96740.72;5049756;28;20377;-69
2021/06/02 12:51:54;;;;;;;;;;;;;;;16.90;53.99;96735.44;5032531;28;19940;-69
2021/06/02 12:54:25;;;;;;;;;;;;;;;16.88;54.16;96748.78;5020194;28;20388;-69
2021/06/02 12:56:51;;;;;;;;;;;;;;;16.90;54.13;96753.84;5051051;28;19925;-69
2021/06/02 12:59:18;;;;;;;;;;;;;;;16.91;53.89;96749.41;5048229;28;19925;-69
2021/06/02 13:01:45;;;;;;;;;;;;;;;16.89;54.11;96753.06;5048583;28;19959;-69
2021/06/02 13:04:15;;;;;;;;;;;;;;;16.91;53.98;96752.03;5050398;28;20015;-69
2021/06/02 13:06:50;;;;;;;;;;;;;;;16.91;54.03;96738.88;5047759;28;19929;-69
2021/06/02 13:09:18;;;;;;;;;;;;;;;16.91;53.89;96744.13;5048216;28;20270;-69
2021/06/02 13:11:45;;;;;;;;;;;;;;;16.92;53.95;96751.81;5051033;28;19937;-70
2021/06/02 13:14:12;;;;;;;;;;;;;;;16.92;54.07;96751.03;5050781;28;19959;-70
2021/06/02 13:16:52;;;;;;;;;;;;;;;16.92;54.11;96743.13;5047455;28;20377;-69